Terminal Aerodrome Forecast
Issued by NWS

Current Version | Previous Version | Text Only | Print | Product List | Glossary On
Versions: 1 2 3 4 5 6 7 8 9 10 11 12 13 14 15 16
404
FTAK31 PAJN 221129
TAFAGY
TAF
PAGY 221129Z 2212/2312 04025G35KT 6SM BLSN OVC090
     FM222100 04015G25KT P6SM SCT050 BKN090
     FM230200 02010G18KT 5SM -SN BKN020 OVC035
     FM230800 02010G18KT 3SM -SN BKN012 OVC020
      AMD LTD TO CLD VIS AND WIND=

USA.gov is the U.S. government's official web portal to all federal, state and local government web resources and services.